• Join FlightAware (Why Join?)
  • Login
  • US Flag 
09:17PM EDT


 

Airport Tracker/Info


-or-


 

Live Flight TrackerFlight Track Log ✈ N100PU ✈ 25-Oct-2013 ✈ KMEM - KLAF

Flight Track Log - Related Links

Times and Time Zones

All times are in EDT time to prevent confusion due to time zone crossing. See the N100PU flight status page for this flight to view local times or setup timezone preferences in your user account.

Time Position Orientation Groundspeed Altitude Reporting Facility
EDT Latitude Longitude Course Direction KTS MPH feet Rate Location/Type
08:59PM 35.0667 -89.9833 338° Northwest 154 177 900  Level KMEM
09:00PM 35.1000 -90.0000 338° Northwest 175 201 3,500 2,700 Climbing KMEM
09:01PM 35.1500 -89.9833 15° North 213 245 6,300 2,640 Climbing KMEM
09:02PM 35.2000 -89.9333 39° Northeast 226 260 8,800 2,220 Climbing KMEM
09:05PM 35.3361 -89.9067 North 219 252 13,600 2,160 Climbing Memphis Center
09:06PM 35.4028 -89.8908 11° North 227 261 15,800 2,100 Climbing Memphis Center
09:07PM 35.4694 -89.8753 11° North 240 276 17,900 1,800 Climbing Memphis Center
09:08PM 35.5403 -89.8569 12° North 246 283 19,500 1,740 Climbing Memphis Center
09:10PM 35.6800 -89.8253 10° North 269 310 23,100 1,860 Climbing Memphis Center
09:11PM 35.7675 -89.8044 11° North 262 302 25,100 1,860 Climbing Memphis Center
09:12PM 35.8486 -89.7858 11° North 275 316 26,900 1,500 Climbing Memphis Center
09:13PM 35.9319 -89.7675 10° North 286 329 28,200 1,320 Climbing Memphis Center
09:14PM 36.0175 -89.7489 10° North 301 346 29,600 1,260 Climbing Memphis Center
09:15PM 36.1047 -89.7275 11° North 308 354 30,800 1,380 Climbing Memphis Center
09:16PM 36.1944 -89.7064 11° North 315 362 32,400 1,500 Climbing Memphis Center
09:17PM 36.2819 -89.6875 10° North 315 362 33,800 1,260 Climbing Memphis Center
09:18PM 36.3672 -89.6689 10° North 315 362 35,000 600 Climbing Memphis Center
09:19PM 36.4589 -89.6475 11° North 315 362 35,000  Level Memphis Center
09:20PM 36.5378 -89.6261 12° North 329 379 35,000  Level Memphis Center
09:21PM 36.6461 -89.5992 11° North 347 399 35,000  Level Memphis Center
09:22PM 36.7503 -89.5750 11° North 365 420 35,000  Level Memphis Center
09:23PM 36.8522 -89.5481 12° North 370 426 35,000  Level Memphis Center
09:25PM 37.0558 -89.4972 11° North 378 435 35,000  Level Kansas City Center
09:26PM 37.1597 -89.4731 11° North 379 436 35,000  Level Kansas City Center
09:27PM 37.2631 -89.4472 11° North 378 435 35,000  Level Kansas City Center
09:28PM 37.3658 -89.4233 10° North 377 434 35,000  Level Kansas City Center
09:29PM 37.4700 -89.4136 North 377 434 35,000  Level Kansas City Center
09:30PM 37.5892 -89.4131 360° North 372 428 35,000  Level Kansas City Center
09:31PM 37.6914 -89.4100 North 369 425 35,000  Level Kansas City Center
09:32PM 37.7939 -89.3986 North 371 427 35,000  Level Kansas City Center
09:33PM 37.8983 -89.3189 31° Northeast 395 455 35,000  Level Kansas City Center
09:34PM 37.9867 -89.2392 35° Northeast 392 451 35,000  Level Kansas City Center
09:35PM 38.0750 -89.1597 35° Northeast 391 450 35,000  Level Kansas City Center
09:36PM 38.1528 -89.0878 36° Northeast 390 449 35,000  Level Kansas City Center
09:37PM 38.2583 -88.9903 36° Northeast 392 451 35,000  Level Kansas City Center
09:38PM 38.3458 -88.9103 36° Northeast 391 450 35,000  Level Kansas City Center
09:39PM 38.4394 -88.8244 36° Northeast 389 448 35,000  Level Kansas City Center
09:40PM 38.5269 -88.7436 36° Northeast 389 448 35,000  Level Kansas City Center
09:41PM 38.6081 -88.6672 36° Northeast 390 449 35,000 -60 Level Kansas City Center
09:42PM 38.6947 -88.5867 36° Northeast 390 449 34,900 -540 Descending Kansas City Center
09:43PM 38.7828 -88.5044 36° Northeast 389 448 33,900 -1,020 Descending Kansas City Center
09:44PM 38.8714 -88.4217 36° Northeast 389 448 32,900 -1,020 Descending Kansas City Center
09:45PM 38.9622 -88.3375 36° Northeast 394 453 31,900 -1,080 Descending Kansas City Center
09:46PM 39.0711 -88.2339 36° Northeast 401 461 30,700 -960 Descending Kansas City Center
09:47PM 39.1625 -88.1478 36° Northeast 402 463 30,000 -360 Descending Kansas City Center
09:48PM 39.2519 -88.0633 36° Northeast 403 464 30,000 -240 Level Indianapolis Center
09:49PM 39.3428 -87.9761 37° Northeast 404 465 29,600 -840 Descending Indianapolis Center
09:50PM 39.4325 -87.8911 36° Northeast 402 463 28,300 -2,460 Descending Indianapolis Center
09:51PM 39.5378 -87.7889 37° Northeast 400 460 24,700 -3,240 Descending Indianapolis Center
09:52PM 39.6239 -87.7075 36° Northeast 390 449 21,700 -2,940 Descending Indianapolis Center
09:53PM 39.7042 -87.6300 37° Northeast 370 426 18,700 -2,760 Descending Indianapolis Center
09:54PM 39.7817 -87.5561 36° Northeast 355 409 16,100 -2,400 Descending Indianapolis Center
09:55PM 39.8542 -87.4847 37° Northeast 337 388 13,900 -1,920 Descending Indianapolis Center
09:56PM 39.9261 -87.4156 36° Northeast 327 376 12,200 -1,620 Descending Indianapolis Center
09:57PM 39.9950 -87.3486 37° Northeast 316 364 10,600 -1,080 Descending Indianapolis Center
09:58PM 40.0544 -87.2889 38° Northeast 285 328 10,100 -1,080 Descending Indianapolis Center
10:00PM 40.1161 -87.2294 36° Northeast 277 319 8,500 -960 Descending Indianapolis Center
10:00PM 40.1661 -87.1828 35° Northeast 276 318 8,500 -1,620 Level Chicago Center
10:03PM 40.3197 -87.1294 15° North 238 274 3,600 -1,680 Descending Indianapolis Center
10:04PM 40.3739 -87.1219 North 231 266 3,000 -600 Descending Indianapolis Center